Time;durP1;ratioP1;P1;durP2;ratioP2;P2;SDS_P1;SDS_P2;PMS_P1;PMS_P2;Temp;Humidity;BMP_temperature;BMP_pressure;BME280_temperature;BME280_humidity;BME280_pressure;Samples;Min_cycle;Max_cycle;Signal;HPM_P1;HPM_P2
2022/11/10 00:00:23;;;;;;;;;;;5.60;99.90;;;;;;5089232;28;20383;-77
2022/11/10 00:03:10;;;;;;;;;;;5.70;99.90;;;;;;5089933;28;20299;-79
2022/11/10 00:05:57;;;;;;;;;;;5.70;99.90;;;;;;5093653;28;19927;-78
2022/11/10 00:08:42;;;;;;;;;;;5.60;99.90;;;;;;5100181;28;20041;-77
2022/11/10 00:11:28;;;;;;;;;;;5.60;99.90;;;;;;5103320;28;20283;-77
2022/11/10 00:17:17;;;;;;;;;;;5.50;99.90;;;;;;5121268;28;19998;-78
2022/11/10 00:20:03;;;;;;;;;;;5.40;99.90;;;;;;5103386;28;19931;-79
2022/11/10 00:22:50;;;;;;;;;;;5.40;99.90;;;;;;5108185;28;19931;-78
2022/11/10 00:25:36;;;;;;;;;;;5.40;99.90;;;;;;5117969;28;19931;-78
2022/11/10 00:28:21;;;;;;;;;;;5.30;99.90;;;;;;5104752;28;20150;-77
2022/11/10 00:31:07;;;;;;;;;;;5.40;99.90;;;;;;5104870;28;19978;-77
2022/11/10 00:33:53;;;;;;;;;;;5.30;99.90;;;;;;5105103;28;19926;-77
2022/11/10 00:36:39;;;;;;;;;;;5.40;99.90;;;;;;5101583;28;19927;-78
2022/11/10 00:39:26;;;;;;;;;;;5.30;99.90;;;;;;5103960;28;19930;-78
2022/11/10 00:42:12;;;;;;;;;;;5.30;99.90;;;;;;5100740;28;20003;-77
2022/11/10 00:44:58;;;;;;;;;;;5.30;99.90;;;;;;5101527;28;19931;-78
2022/11/10 00:47:45;;;;;;;;;;;5.30;99.90;;;;;;5102384;28;20389;-77
2022/11/10 00:50:30;;;;;;;;;;;5.30;99.90;;;;;;5101147;28;19939;-79
2022/11/10 00:53:17;;;;;;;;;;;5.20;99.90;;;;;;5102680;28;19930;-77
2022/11/10 00:56:04;;;;;;;;;;;5.10;99.90;;;;;;5101937;28;20275;-79
2022/11/10 00:58:49;;;;;;;;;;;5.20;99.90;;;;;;5102525;28;20013;-78
2022/11/10 01:01:35;;;;;;;;;;;5.10;99.90;;;;;;5100724;28;19927;-80
2022/11/10 01:04:20;;;;;;;;;;;5.10;99.90;;;;;;5102422;28;19946;-77
2022/11/10 01:07:06;;;;;;;;;;;5.10;99.90;;;;;;5101409;28;19981;-78
2022/11/10 01:09:51;;;;;;;;;;;5.10;99.90;;;;;;5102029;28;20054;-79
2022/11/10 01:12:38;;;;;;;;;;;5.00;99.90;;;;;;5102575;28;20025;-79
2022/11/10 01:15:24;;;;;;;;;;;5.00;99.90;;;;;;5103097;28;19927;-78
2022/11/10 01:18:10;;;;;;;;;;;4.90;99.90;;;;;;5102402;28;19927;-76
2022/11/10 01:20:56;;;;;;;;;;;4.90;99.90;;;;;;5099562;28;19985;-79
2022/11/10 01:23:41;;;;;;;;;;;5.00;99.90;;;;;;5102107;28;20317;-77
2022/11/10 01:26:27;;;;;;;;;;;5.00;99.90;;;;;;5100233;28;20406;-75
2022/11/10 01:29:14;;;;;;;;;;;5.00;99.90;;;;;;5101581;28;19970;-77
2022/11/10 01:32:00;;;;;;;;;;;5.00;99.90;;;;;;5101411;28;19966;-78
2022/11/10 01:34:45;;;;;;;;;;;5.00;99.90;;;;;;5101930;28;19926;-77
2022/11/10 01:37:31;;;;;;;;;;;5.00;99.90;;;;;;5101631;28;20020;-79
2022/11/10 01:40:17;;;;;;;;;;;5.00;99.90;;;;;;5101120;28;19951;-79
2022/11/10 01:43:02;;;;;;;;;;;4.90;99.90;;;;;;5101562;28;19946;-78
2022/11/10 01:45:51;;;;;;;;;;;4.80;99.90;;;;;;5101856;28;19926;-78
2022/11/10 01:48:38;;;;;;;;;;;4.80;99.90;;;;;;5100229;28;20006;-77
2022/11/10 01:51:25;;;;;;;;;;;4.80;99.90;;;;;;5100763;28;19927;-78
2022/11/10 01:54:12;;;;;;;;;;;4.80;99.90;;;;;;5101258;28;20062;-78
2022/11/10 01:57:00;;;;;;;;;;;4.80;99.90;;;;;;5100015;28;20489;-77
2022/11/10 01:59:47;;;;;;;;;;;4.80;99.90;;;;;;5100967;28;19934;-78
2022/11/10 02:02:37;;;;;;;;;;;4.80;99.90;;;;;;5101339;28;20358;-79
2022/11/10 02:05:24;;;;;;;;;;;4.70;99.90;;;;;;5099522;28;19938;-78
2022/11/10 02:08:10;;;;;;;;;;;4.70;99.90;;;;;;5103650;28;20373;-79
2022/11/10 02:10:56;;;;;;;;;;;4.70;99.90;;;;;;5103950;28;19943;-79
2022/11/10 02:13:42;;;;;;;;;;;4.70;99.90;;;;;;5118073;28;19947;-79
2022/11/10 02:16:28;;;;;;;;;;;4.60;99.90;;;;;;5113517;28;19926;-79
2022/11/10 02:19:17;;;;;;;;;;;4.70;99.90;;;;;;5100996;28;19926;-78
2022/11/10 02:22:04;;;;;;;;;;;4.70;99.90;;;;;;5098325;28;19976;-78
2022/11/10 02:24:49;;;;;;;;;;;4.70;99.90;;;;;;5101314;28;20278;-78
2022/11/10 02:27:35;;;;;;;;;;;4.60;99.90;;;;;;5101634;28;20020;-79
2022/11/10 02:30:20;;;;;;;;;;;4.50;99.90;;;;;;5099662;28;19973;-80
2022/11/10 02:33:06;;;;;;;;;;;4.50;99.90;;;;;;5099082;28;20025;-81
2022/11/10 02:35:51;;;;;;;;;;;4.50;99.90;;;;;;5101105;28;19927;-77
2022/11/10 02:38:38;;;;;;;;;;;4.50;99.90;;;;;;5100106;28;19942;-80
2022/11/10 02:41:24;;;;;;;;;;;4.30;99.90;;;;;;5099195;28;20294;-79
2022/11/10 02:44:10;;;;;;;;;;;4.40;99.90;;;;;;5100610;28;19930;-78
2022/11/10 02:46:55;;;;;;;;;;;4.40;99.90;;;;;;5100593;28;20370;-78
2022/11/10 02:49:41;;;;;;;;;;;4.40;99.90;;;;;;5097697;28;20306;-79
2022/11/10 02:52:27;;;;;;;;;;;4.40;99.90;;;;;;5100310;28;19930;-78
2022/11/10 02:55:14;;;;;;;;;;;4.40;99.90;;;;;;5100834;28;19927;-77
2022/11/10 02:58:00;;;;;;;;;;;4.40;99.90;;;;;;5100319;28;19971;-78
2022/11/10 03:00:45;;;;;;;;;;;4.30;99.90;;;;;;5099091;28;19930;-77
2022/11/10 03:03:31;;;;;;;;;;;4.30;99.90;;;;;;5100726;28;19930;-79
2022/11/10 03:06:17;;;;;;;;;;;4.30;99.90;;;;;;5100100;28;20287;-78
2022/11/10 03:09:03;;;;;;;;;;;4.40;99.90;;;;;;5100549;28;19926;-78
2022/11/10 03:11:50;;;;;;;;;;;4.30;99.90;;;;;;5101261;28;20021;-80
2022/11/10 03:14:36;;;;;;;;;;;4.40;99.90;;;;;;5100674;28;19931;-80
2022/11/10 03:17:21;;;;;;;;;;;4.40;99.90;;;;;;5100111;28;19994;-80
2022/11/10 03:20:07;;;;;;;;;;;4.40;99.90;;;;;;5104283;28;19930;-80
2022/11/10 03:22:53;;;;;;;;;;;4.40;99.90;;;;;;5107023;28;19943;-79
2022/11/10 03:25:39;;;;;;;;;;;4.30;99.90;;;;;;5111322;28;20602;-77
2022/11/10 03:28:26;;;;;;;;;;;4.30;99.90;;;;;;5102141;28;19945;-79
2022/11/10 03:31:11;;;;;;;;;;;4.30;99.90;;;;;;5102206;28;19926;-77
2022/11/10 03:33:57;;;;;;;;;;;4.20;99.90;;;;;;5100358;28;20414;-78
2022/11/10 03:36:43;;;;;;;;;;;4.20;99.90;;;;;;5100337;28;19994;-79
2022/11/10 03:39:28;;;;;;;;;;;4.10;99.90;;;;;;5099663;28;19930;-79
2022/11/10 03:42:14;;;;;;;;;;;4.10;99.90;;;;;;5097701;28;19926;-78
2022/11/10 03:45:00;;;;;;;;;;;4.20;99.90;;;;;;5117287;28;19927;-80
2022/11/10 03:47:46;;;;;;;;;;;4.30;99.90;;;;;;5128534;28;19911;-79
2022/11/10 03:50:32;;;;;;;;;;;4.30;99.90;;;;;;5128276;28;19934;-77
2022/11/10 03:53:18;;;;;;;;;;;4.30;99.90;;;;;;5104628;28;19950;-77
2022/11/10 03:56:06;;;;;;;;;;;4.20;99.90;;;;;;5104075;28;20014;-78
2022/11/10 03:58:51;;;;;;;;;;;4.20;99.90;;;;;;5100219;28;19967;-79
2022/11/10 04:01:39;;;;;;;;;;;4.20;99.90;;;;;;5104014;28;19974;-78
2022/11/10 04:10:35;;;;;;;;;;;4.20;99.90;;;;;;5101847;28;19989;-77
2022/11/10 04:16:24;;;;;;;;;;;4.20;99.90;;;;;;5103492;28;19974;-78
2022/11/10 04:19:11;;;;;;;;;;;4.10;99.90;;;;;;5102044;28;19930;-79
2022/11/10 04:21:57;;;;;;;;;;;4.10;99.90;;;;;;5101573;28;19942;-79
2022/11/10 04:24:43;;;;;;;;;;;4.10;99.90;;;;;;5102772;28;19926;-77
2022/11/10 04:27:29;;;;;;;;;;;4.20;99.90;;;;;;5101458;28;19927;-79
2022/11/10 04:30:14;;;;;;;;;;;4.20;99.90;;;;;;5102673;28;20025;-80
2022/11/10 04:33:00;;;;;;;;;;;4.20;99.90;;;;;;5102968;28;20286;-78
2022/11/10 04:35:47;;;;;;;;;;;4.20;99.90;;;;;;5102558;28;19964;-78
2022/11/10 04:38:33;;;;;;;;;;;4.20;99.90;;;;;;5102533;28;19935;-79
2022/11/10 04:41:18;;;;;;;;;;;4.10;99.90;;;;;;5102767;28;19926;-80
2022/11/10 04:44:04;;;;;;;;;;;4.10;99.90;;;;;;5102836;28;20409;-78
2022/11/10 04:46:49;;;;;;;;;;;4.00;99.90;;;;;;5102486;28;19965;-79
2022/11/10 04:49:35;;;;;;;;;;;4.00;99.90;;;;;;5102790;28;19927;-77
2022/11/10 04:52:22;;;;;;;;;;;4.00;99.90;;;;;;5100458;28;20294;-79
2022/11/10 04:55:08;;;;;;;;;;;4.00;99.90;;;;;;5102364;28;19994;-78
2022/11/10 04:57:54;;;;;;;;;;;4.00;99.90;;;;;;5102109;28;19938;-78
2022/11/10 05:00:40;;;;;;;;;;;4.10;99.90;;;;;;5101394;28;19931;-78
2022/11/10 05:03:26;;;;;;;;;;;4.10;99.90;;;;;;5102142;28;19973;-78
2022/11/10 05:06:12;;;;;;;;;;;4.10;99.90;;;;;;5098855;28;19929;-79
2022/11/10 05:08:58;;;;;;;;;;;4.10;99.90;;;;;;5101617;28;19930;-77
2022/11/10 05:11:44;;;;;;;;;;;4.00;99.90;;;;;;5102904;28;19930;-80
2022/11/10 05:14:30;;;;;;;;;;;4.00;99.90;;;;;;5102825;28;19993;-78
2022/11/10 05:17:16;;;;;;;;;;;4.10;99.90;;;;;;5102241;28;19930;-77
2022/11/10 05:20:01;;;;;;;;;;;4.10;99.90;;;;;;5101561;28;20045;-78
2022/11/10 05:23:36;;;;;;;;;;;4.10;99.90;;;;;;5102190;28;19946;-79
2022/11/10 05:25:55;;;;;;;;;;;4.10;99.90;;;;;;5100327;28;19942;-78
2022/11/10 05:28:42;;;;;;;;;;;4.10;99.90;;;;;;5101841;28;19926;-77
2022/11/10 05:31:29;;;;;;;;;;;4.10;99.90;;;;;;5101459;28;19969;-76
2022/11/10 05:34:14;;;;;;;;;;;4.20;99.90;;;;;;5100915;28;19927;-79
2022/11/10 05:37:00;;;;;;;;;;;4.10;99.90;;;;;;5102188;28;19943;-79
2022/11/10 05:39:45;;;;;;;;;;;4.10;99.90;;;;;;5101391;28;20359;-80
2022/11/10 05:42:32;;;;;;;;;;;4.10;99.90;;;;;;5102322;28;19927;-79
2022/11/10 05:45:18;;;;;;;;;;;4.10;99.90;;;;;;5103966;28;19993;-79
2022/11/10 05:48:04;;;;;;;;;;;4.10;99.90;;;;;;5102408;28;19926;-78
2022/11/10 05:50:50;;;;;;;;;;;4.10;99.90;;;;;;5100137;28;20503;-77
2022/11/10 05:53:36;;;;;;;;;;;4.10;99.90;;;;;;5100390;28;19931;-79
2022/11/10 05:56:21;;;;;;;;;;;4.20;99.90;;;;;;5101464;28;20373;-78
2022/11/10 05:59:08;;;;;;;;;;;4.20;99.90;;;;;;5101551;28;20545;-79
2022/11/10 06:01:54;;;;;;;;;;;4.20;99.90;;;;;;5100483;28;19943;-79
2022/11/10 06:04:39;;;;;;;;;;;4.20;99.90;;;;;;5099691;28;20489;-79
2022/11/10 06:07:25;;;;;;;;;;;4.30;99.90;;;;;;5099548;28;19966;-79
2022/11/10 06:10:11;;;;;;;;;;;4.30;99.90;;;;;;5100406;28;19926;-78
2022/11/10 06:12:57;;;;;;;;;;;4.30;99.90;;;;;;5097247;28;19931;-79
2022/11/10 06:15:44;;;;;;;;;;;4.40;99.90;;;;;;5099978;28;20284;-80
2022/11/10 06:18:30;;;;;;;;;;;4.40;99.90;;;;;;5100048;28;20118;-77
2022/11/10 06:21:15;;;;;;;;;;;4.40;99.90;;;;;;5099944;28;19930;-77
2022/11/10 06:24:01;;;;;;;;;;;4.50;99.90;;;;;;5100950;28;20009;-77
2022/11/10 06:26:46;;;;;;;;;;;4.60;99.90;;;;;;5099394;28;20014;-79
2022/11/10 06:29:32;;;;;;;;;;;4.70;99.90;;;;;;5099706;28;20477;-80
2022/11/10 06:32:19;;;;;;;;;;;4.80;99.90;;;;;;5108364;28;20291;-80
2022/11/10 06:35:05;;;;;;;;;;;5.00;99.90;;;;;;5111625;28;19997;-80
2022/11/10 06:37:57;;;;;;;;;;;5.20;99.90;;;;;;5100630;28;19931;-80
2022/11/10 06:40:42;;;;;;;;;;;5.40;99.90;;;;;;5099776;28;19945;-80
2022/11/10 06:43:28;;;;;;;;;;;5.60;99.90;;;;;;5101189;28;19926;-79
2022/11/10 06:46:14;;;;;;;;;;;5.90;99.90;;;;;;5100259;28;20460;-78
2022/11/10 06:49:01;;;;;;;;;;;6.10;99.90;;;;;;5098654;28;19927;-80
2022/11/10 06:51:47;;;;;;;;;;;6.30;99.90;;;;;;5099676;28;19927;-79
2022/11/10 06:54:33;;;;;;;;;;;6.40;99.90;;;;;;5100460;28;20291;-80
2022/11/10 06:57:19;;;;;;;;;;;6.60;99.90;;;;;;5099814;28;19927;-77
2022/11/10 07:00:05;;;;;;;;;;;6.70;99.90;;;;;;5099863;28;19926;-79
2022/11/10 07:02:58;;;;;;;;;;;6.80;99.90;;;;;;5098873;28;19926;-79
2022/11/10 07:05:45;;;;;;;;;;;7.00;99.90;;;;;;5099465;28;20393;-79
2022/11/10 07:08:30;;;;;;;;;;;7.20;99.90;;;;;;5099944;28;19926;-77
2022/11/10 07:11:16;;;;;;;;;;;7.20;99.90;;;;;;5099822;28;19931;-81
2022/11/10 07:14:01;;;;;;;;;;;7.30;99.90;;;;;;5101113;28;19927;-79
2022/11/10 07:16:47;;;;;;;;;;;7.50;99.90;;;;;;5100047;28;19930;-79
2022/11/10 07:19:32;;;;;;;;;;;7.60;99.90;;;;;;5101425;28;20057;-78
2022/11/10 07:22:19;;;;;;;;;;;7.60;99.90;;;;;;5104047;28;19935;-79
2022/11/10 07:25:05;;;;;;;;;;;7.70;99.90;;;;;;5103202;28;20501;-78
2022/11/10 07:27:53;;;;;;;;;;;7.90;99.90;;;;;;5103809;28;20020;-78
2022/11/10 07:30:40;;;;;;;;;;;8.10;99.90;;;;;;5103802;28;19966;-78
2022/11/10 07:33:26;;;;;;;;;;;8.30;99.90;;;;;;5103511;28;19930;-78
2022/11/10 07:36:11;;;;;;;;;;;8.50;99.90;;;;;;5100054;28;19942;-77
2022/11/10 07:38:58;;;;;;;;;;;8.60;99.90;;;;;;5103315;28;20282;-78
2022/11/10 07:41:44;;;;;;;;;;;8.70;99.90;;;;;;5101692;28;19926;-77
2022/11/10 07:44:30;;;;;;;;;;;8.80;99.90;;;;;;5103054;28;19973;-77
2022/11/10 07:47:15;;;;;;;;;;;8.90;99.90;;;;;;5102962;28;19934;-80
2022/11/10 07:50:01;;;;;;;;;;;9.00;99.90;;;;;;5102178;28;19969;-78
2022/11/10 07:52:46;;;;;;;;;;;9.20;99.90;;;;;;5103792;28;20497;-77
2022/11/10 07:55:33;;;;;;;;;;;9.30;99.90;;;;;;5104154;28;20294;-78
2022/11/10 07:58:19;;;;;;;;;;;9.40;99.90;;;;;;5104146;28;19943;-77
2022/11/10 08:01:04;;;;;;;;;;;9.60;99.90;;;;;;5103723;28;20536;-78
2022/11/10 08:03:50;;;;;;;;;;;9.80;99.90;;;;;;5103306;28;19998;-79
2022/11/10 08:06:35;;;;;;;;;;;9.80;99.90;;;;;;5102746;28;19926;-78
2022/11/10 08:09:21;;;;;;;;;;;9.90;99.90;;;;;;5105498;28;20026;-79
2022/11/10 08:12:08;;;;;;;;;;;9.90;99.90;;;;;;5102419;28;19927;-78
2022/11/10 08:14:54;;;;;;;;;;;10.00;99.90;;;;;;5101735;28;19932;-78
2022/11/10 08:17:40;;;;;;;;;;;10.10;99.90;;;;;;5103536;28;20539;-78
2022/11/10 08:20:25;;;;;;;;;;;10.10;99.90;;;;;;5101714;28;19926;-78
2022/11/10 08:23:12;;;;;;;;;;;10.30;99.90;;;;;;5102784;28;19946;-78
2022/11/10 08:25:58;;;;;;;;;;;10.30;99.90;;;;;;5102518;28;19927;-77
2022/11/10 08:28:45;;;;;;;;;;;10.40;99.90;;;;;;5102436;28;20476;-77
2022/11/10 08:31:32;;;;;;;;;;;10.60;99.90;;;;;;5101625;28;20425;-78
2022/11/10 08:34:18;;;;;;;;;;;10.70;99.90;;;;;;5101291;28;20441;-78
2022/11/10 08:37:03;;;;;;;;;;;10.90;99.90;;;;;;5118899;28;19947;-76
2022/11/10 08:39:49;;;;;;;;;;;11.20;99.90;;;;;;5119997;28;19919;-77
2022/11/10 08:42:34;;;;;;;;;;;11.20;99.90;;;;;;5112856;28;19964;-77
2022/11/10 08:45:21;;;;;;;;;;;11.30;99.90;;;;;;5104391;28;19934;-79
2022/11/10 08:48:08;;;;;;;;;;;11.50;99.90;;;;;;5110092;28;19926;-76
2022/11/10 08:50:54;;;;;;;;;;;11.60;99.90;;;;;;5106499;28;19931;-78
2022/11/10 08:53:39;;;;;;;;;;;11.80;99.90;;;;;;5108871;22;19927;-76
2022/11/10 08:56:25;;;;;;;;;;;12.00;99.90;;;;;;5103077;28;19966;-77
2022/11/10 08:59:11;;;;;;;;;;;12.10;99.90;;;;;;5109827;28;19931;-77
2022/11/10 09:01:58;;;;;;;;;;;12.30;99.90;;;;;;5105368;28;20021;-75
2022/11/10 09:04:44;;;;;;;;;;;12.50;99.90;;;;;;5108155;28;19929;-76
2022/11/10 09:07:30;;;;;;;;;;;12.60;99.90;;;;;;5116900;28;19946;-78
2022/11/10 09:10:16;;;;;;;;;;;12.70;99.90;;;;;;5121803;28;19926;-78
2022/11/10 09:13:02;;;;;;;;;;;12.90;99.90;;;;;;5119167;28;19957;-80
2022/11/10 09:15:48;;;;;;;;;;;13.10;99.90;;;;;;5106074;28;19927;-78
2022/11/10 09:18:35;;;;;;;;;;;13.30;99.90;;;;;;5122294;28;19926;-80
2022/11/10 09:21:21;;;;;;;;;;;13.40;99.90;;;;;;5109425;28;19926;-76
2022/11/10 09:24:10;;;;;;;;;;;13.50;99.90;;;;;;5106958;28;19927;-78
2022/11/10 09:26:56;;;;;;;;;;;13.70;99.90;;;;;;5103042;28;19938;-77
2022/11/10 09:29:41;;;;;;;;;;;13.80;99.90;;;;;;5101828;28;20037;-77
2022/11/10 09:32:27;;;;;;;;;;;13.90;99.90;;;;;;5103616;28;19931;-76
2022/11/10 09:35:14;;;;;;;;;;;14.10;99.90;;;;;;5101001;28;20346;-77
2022/11/10 09:38:00;;;;;;;;;;;14.20;99.90;;;;;;5099724;28;19983;-77
2022/11/10 09:40:55;;;;;;;;;;;14.30;99.90;;;;;;5101735;28;19926;-77
2022/11/10 09:43:42;;;;;;;;;;;14.40;99.90;;;;;;5102758;28;19947;-76
2022/11/10 09:46:31;;;;;;;;;;;14.50;99.90;;;;;;5102218;28;20129;-78
2022/11/10 09:49:23;;;;;;;;;;;14.60;99.90;;;;;;5102390;28;20013;-77
2022/11/10 09:52:12;;;;;;;;;;;14.70;99.90;;;;;;5101506;28;19930;-78
2022/11/10 09:54:59;;;;;;;;;;;14.90;99.90;;;;;;5103198;28;20420;-77
2022/11/10 09:57:45;;;;;;;;;;;15.00;99.90;;;;;;5101565;28;20323;-76
2022/11/10 10:00:32;;;;;;;;;;;15.10;99.90;;;;;;5101498;28;19926;-77
2022/11/10 10:03:23;;;;;;;;;;;15.30;99.90;;;;;;5102493;28;20361;-77
2022/11/10 10:06:15;;;;;;;;;;;15.40;99.90;;;;;;5104568;28;19971;-77
2022/11/10 10:09:10;;;;;;;;;;;15.50;99.90;;;;;;5100291;28;19943;-74
2022/11/10 10:12:01;;;;;;;;;;;15.60;99.90;;;;;;5100940;28;20491;-76
2022/11/10 10:14:56;;;;;;;;;;;15.70;99.90;;;;;;5100536;28;19931;-74
2022/11/10 10:17:53;;;;;;;;;;;15.70;99.90;;;;;;5099287;28;20032;-73
2022/11/10 10:53:16;;;;;;;;;;;16.70;94.10;;;;;;4389742;26;20410;-81
2022/11/10 10:56:04;;;;;;;;;;;16.80;93.30;;;;;;5050588;28;19932;-81
2022/11/10 10:58:51;;;;;;;;;;;16.90;93.00;;;;;;5048667;28;19931;-82
2022/11/10 11:01:38;;;;;;;;;;;17.00;92.80;;;;;;5029275;28;20371;-82
2022/11/10 11:04:28;;;;;;;;;;;17.10;92.60;;;;;;5028513;28;19932;-80
2022/11/10 11:07:19;;;;;;;;;;;17.20;93.20;;;;;;5030056;28;20078;-81
2022/11/10 11:10:19;;;;;;;;;;;17.30;93.30;;;;;;5030704;28;19979;-80
2022/11/10 11:22:16;;;;;;;;;;;17.40;94.50;;;;;;5633152;22;20063;-78
2022/11/10 11:25:07;;;;;;;;;;;17.50;94.80;;;;;;5040374;28;19928;-78
2022/11/10 11:27:58;;;;;;;;;;;17.50;95.00;;;;;;5041033;28;20019;-78
2022/11/10 11:30:50;;;;;;;;;;;17.60;94.50;;;;;;5038134;28;20429;-78
2022/11/10 11:33:40;;;;;;;;;;;17.80;94.20;;;;;;5037742;28;20036;-80
2022/11/10 11:36:29;;;;;;;;;;;17.90;94.40;;;;;;5036871;28;19927;-79
2022/11/10 11:39:20;;;;;;;;;;;17.90;94.00;;;;;;5042426;28;19928;-79
2022/11/10 11:42:11;;;;;;;;;;;18.10;93.80;;;;;;5027165;28;19928;-77
2022/11/10 11:45:04;;;;;;;;;;;18.20;93.70;;;;;;5043376;28;20509;-79
2022/11/10 11:47:59;;;;;;;;;;;18.40;93.40;;;;;;5032764;28;19974;-80
2022/11/10 11:50:50;;;;;;;;;;;18.60;93.20;;;;;;5031039;28;20397;-80
2022/11/10 11:53:41;;;;;;;;;;;18.80;93.00;;;;;;5038248;28;20401;-79
2022/11/10 11:56:28;;;;;;;;;;;19.10;91.80;;;;;;5029590;28;20004;-83
2022/11/10 11:59:28;;;;;;;;;;;19.20;91.10;;;;;;5032305;28;19951;-81
2022/11/10 12:02:23;;;;;;;;;;;19.30;90.90;;;;;;5030413;28;19927;-90
2022/11/10 12:05:18;;;;;;;;;;;19.50;90.30;;;;;;5031765;28;20307;-89
2022/11/10 12:08:10;;;;;;;;;;;19.60;90.00;;;;;;5040081;28;19985;-79
2022/11/10 12:11:02;;;;;;;;;;;19.80;89.40;;;;;;5044684;28;19997;-77
2022/11/10 12:13:55;;;;;;;;;;;20.20;88.10;;;;;;5004645;28;19941;-79
2022/11/10 12:16:44;;;;;;;;;;;20.30;86.20;;;;;;5024277;28;19999;-79
2022/11/10 12:19:34;;;;;;;;;;;20.30;85.80;;;;;;5023270;28;19928;-79
2022/11/10 12:22:23;;;;;;;;;;;20.50;84.30;;;;;;5020084;28;19931;-77
2022/11/10 12:25:14;;;;;;;;;;;20.60;84.30;;;;;;5023801;28;19971;-78
2022/11/10 12:28:03;;;;;;;;;;;20.60;85.30;;;;;;5011717;28;19990;-77
2022/11/10 12:30:49;;;;;;;;;;;20.80;84.60;;;;;;5027410;28;20283;-78
2022/11/10 12:33:36;;;;;;;;;;;20.90;84.00;;;;;;5034632;28;19936;-78
2022/11/10 12:36:24;;;;;;;;;;;20.80;84.50;;;;;;5034402;28;20130;-77
2022/11/10 12:39:13;;;;;;;;;;;20.70;85.00;;;;;;5025327;28;19976;-78
2022/11/10 12:42:00;;;;;;;;;;;20.50;86.10;;;;;;5024831;28;19928;-78
2022/11/10 12:44:52;;;;;;;;;;;20.60;86.70;;;;;;5027900;28;20383;-79
2022/11/10 12:47:41;;;;;;;;;;;20.40;86.30;;;;;;5029876;28;19928;-79
2022/11/10 12:50:42;;;;;;;;;;;20.20;87.30;;;;;;5024061;28;20647;-78
2022/11/10 12:53:30;;;;;;;;;;;20.00;86.70;;;;;;5021624;28;19931;-79
2022/11/10 12:56:18;;;;;;;;;;;19.90;87.50;;;;;;5023636;28;20063;-78
2022/11/10 12:59:14;;;;;;;;;;;19.70;87.90;;;;;;5022608;28;20036;-79
2022/11/10 13:02:02;;;;;;;;;;;19.60;88.90;;;;;;5020927;28;20003;-78
2022/11/10 13:05:03;;;;;;;;;;;19.50;89.70;;;;;;5022982;28;19927;-78
2022/11/10 13:07:50;;;;;;;;;;;19.50;90.10;;;;;;5023754;28;19979;-79
2022/11/10 13:10:51;;;;;;;;;;;19.30;90.10;;;;;;5020597;28;19988;-79
2022/11/10 13:13:41;;;;;;;;;;;19.30;90.10;;;;;;5019448;28;19928;-78
2022/11/10 13:16:55;;;;;;;;;;;19.20;90.10;;;;;;5021366;28;21648;-79
2022/11/10 13:19:48;;;;;;;;;;;19.20;90.30;;;;;;4992479;28;20331;-76
2022/11/10 13:22:35;;;;;;;;;;;19.20;90.40;;;;;;5007310;28;19944;-79
2022/11/10 13:25:40;;;;;;;;;;;19.20;90.40;;;;;;5023233;28;20026;-79
2022/11/10 13:28:44;;;;;;;;;;;19.20;90.40;;;;;;5020696;28;20293;-77
2022/11/10 13:31:49;;;;;;;;;;;19.20;90.30;;;;;;5020498;28;19928;-79
2022/11/10 13:34:37;;;;;;;;;;;19.20;90.30;;;;;;5029579;28;20219;-79
2022/11/10 13:37:42;;;;;;;;;;;19.20;90.60;;;;;;5029685;28;19942;-79
2022/11/10 13:40:33;;;;;;;;;;;19.20;90.80;;;;;;5036769;28;19952;-79
2022/11/10 13:43:22;;;;;;;;;;;19.10;90.50;;;;;;5030458;28;19980;-77
2022/11/10 13:46:07;;;;;;;;;;;19.00;90.70;;;;;;5022932;28;19932;-80
2022/11/10 13:49:10;;;;;;;;;;;18.90;90.80;;;;;;5023445;28;19928;-77
2022/11/10 13:52:05;;;;;;;;;;;18.70;91.10;;;;;;5020840;28;19931;-76
2022/11/10 13:55:02;;;;;;;;;;;18.60;91.40;;;;;;5022354;28;20206;-78
2022/11/10 13:57:58;;;;;;;;;;;18.40;91.90;;;;;;5021960;28;19931;-78
2022/11/10 14:00:48;;;;;;;;;;;18.30;92.40;;;;;;5022207;28;19987;-79
2022/11/10 14:03:48;;;;;;;;;;;18.10;92.70;;;;;;5019146;28;20423;-78
2022/11/10 14:06:40;;;;;;;;;;;17.90;93.80;;;;;;5022599;28;20324;-77
2022/11/10 14:09:32;;;;;;;;;;;17.80;94.20;;;;;;5027955;28;19928;-77
2022/11/10 14:12:22;;;;;;;;;;;17.70;94.90;;;;;;5024010;28;19935;-78
2022/11/10 14:15:13;;;;;;;;;;;17.60;96.00;;;;;;5027805;28;20438;-78
2022/11/10 14:18:00;;;;;;;;;;;17.50;96.60;;;;;;5021085;28;20375;-77
2022/11/10 14:20:46;;;;;;;;;;;17.40;99.50;;;;;;5017970;28;19935;-77
2022/11/10 14:23:34;;;;;;;;;;;17.40;99.90;;;;;;5020262;28;20010;-79
2022/11/10 14:26:24;;;;;;;;;;;17.40;99.90;;;;;;5020464;28;19932;-78
2022/11/10 14:29:19;;;;;;;;;;;17.20;99.90;;;;;;5020000;28;20059;-78
2022/11/10 14:32:12;;;;;;;;;;;17.20;99.90;;;;;;5020368;28;19932;-77
2022/11/10 14:34:58;;;;;;;;;;;17.10;99.90;;;;;;5021235;28;20426;-78
2022/11/10 14:37:43;;;;;;;;;;;17.00;99.90;;;;;;5019004;28;20316;-78
2022/11/10 14:40:29;;;;;;;;;;;17.00;99.90;;;;;;5018630;28;20002;-78
2022/11/10 14:43:26;;;;;;;;;;;16.90;99.90;;;;;;5018314;28;19975;-78
2022/11/10 14:46:13;;;;;;;;;;;16.80;99.90;;;;;;5021394;28;20375;-80
2022/11/10 14:49:00;;;;;;;;;;;16.70;99.90;;;;;;5019271;28;19927;-78
2022/11/10 14:51:45;;;;;;;;;;;16.60;99.90;;;;;;5020840;28;19943;-77
2022/11/10 14:54:31;;;;;;;;;;;16.50;99.90;;;;;;5020988;28;20371;-77
2022/11/10 14:57:18;;;;;;;;;;;16.50;99.90;;;;;;5019365;28;20292;-76
2022/11/10 15:00:08;;;;;;;;;;;16.40;99.90;;;;;;5020080;28;19944;-76
2022/11/10 15:02:54;;;;;;;;;;;16.30;99.90;;;;;;5019180;28;19928;-77
2022/11/10 15:05:40;;;;;;;;;;;16.20;99.90;;;;;;5021038;28;19944;-77
2022/11/10 15:08:27;;;;;;;;;;;16.20;99.90;;;;;;5020275;28;20052;-78
2022/11/10 15:11:27;;;;;;;;;;;16.10;99.90;;;;;;5019847;28;19928;-78
2022/11/10 15:14:37;;;;;;;;;;;16.20;99.90;;;;;;5020203;28;19928;-78
2022/11/10 15:17:42;;;;;;;;;;;16.00;99.90;;;;;;5014148;28;20006;-79
2022/11/10 15:20:32;;;;;;;;;;;15.90;99.90;;;;;;5020259;28;19928;-77
2022/11/10 15:23:22;;;;;;;;;;;15.90;99.90;;;;;;5019508;28;19975;-77
2022/11/10 15:26:16;;;;;;;;;;;15.70;99.90;;;;;;5018234;28;20390;-79
2022/11/10 15:29:02;;;;;;;;;;;15.60;99.90;;;;;;5019271;28;20485;-79
2022/11/10 15:31:48;;;;;;;;;;;15.60;99.90;;;;;;5019136;28;19928;-78
2022/11/10 15:34:41;;;;;;;;;;;15.50;99.90;;;;;;5021162;28;19949;-77
2022/11/10 15:37:28;;;;;;;;;;;15.50;99.90;;;;;;5019531;28;20055;-78
2022/11/10 15:40:35;;;;;;;;;;;15.40;99.90;;;;;;5020819;28;20015;-78
2022/11/10 15:43:27;;;;;;;;;;;15.30;99.90;;;;;;5021045;28;20300;-79
2022/11/10 15:46:14;;;;;;;;;;;15.30;99.90;;;;;;5023199;28;19932;-78
2022/11/10 15:49:00;;;;;;;;;;;15.20;99.90;;;;;;5023544;28;19947;-79
2022/11/10 15:51:47;;;;;;;;;;;15.20;99.90;;;;;;5026859;28;20419;-78
2022/11/10 15:54:33;;;;;;;;;;;15.10;99.90;;;;;;5025528;28;19932;-77
2022/11/10 15:57:19;;;;;;;;;;;14.90;99.90;;;;;;5027702;28;19932;-79
2022/11/10 16:00:05;;;;;;;;;;;14.90;99.90;;;;;;5024295;28;20360;-77
2022/11/10 16:02:51;;;;;;;;;;;14.90;99.90;;;;;;5022860;28;20327;-77
2022/11/10 16:05:38;;;;;;;;;;;14.80;99.90;;;;;;5022507;28;20079;-76
2022/11/10 16:08:26;;;;;;;;;;;14.80;99.90;;;;;;5023068;28;19928;-76
2022/11/10 16:11:15;;;;;;;;;;;14.80;99.90;;;;;;5024223;28;19947;-79
2022/11/10 16:14:01;;;;;;;;;;;14.80;99.90;;;;;;5022745;28;20295;-77
2022/11/10 16:16:47;;;;;;;;;;;14.90;99.90;;;;;;5023074;28;19928;-78
2022/11/10 16:19:32;;;;;;;;;;;14.90;99.90;;;;;;5022861;28;19967;-78
2022/11/10 16:22:18;;;;;;;;;;;14.90;99.90;;;;;;5022125;28;19928;-77
2022/11/10 16:25:06;;;;;;;;;;;14.90;99.90;;;;;;5021543;28;20060;-77
2022/11/10 16:27:52;;;;;;;;;;;15.00;99.90;;;;;;5022450;28;19928;-77
2022/11/10 16:30:37;;;;;;;;;;;15.00;99.90;;;;;;5023823;28;19932;-79
2022/11/10 16:33:24;;;;;;;;;;;15.00;99.90;;;;;;5022873;28;19933;-76
2022/11/10 16:36:12;;;;;;;;;;;15.00;99.90;;;;;;5023050;28;20313;-75
2022/11/10 16:39:01;;;;;;;;;;;14.90;99.90;;;;;;5022182;28;19999;-77
2022/11/10 16:41:49;;;;;;;;;;;14.90;99.90;;;;;;5022570;28;19928;-85
2022/11/10 16:44:35;;;;;;;;;;;14.90;99.90;;;;;;5024808;28;20526;-78
2022/11/10 16:47:20;;;;;;;;;;;14.80;99.90;;;;;;5021538;28;19932;-80
2022/11/10 16:50:09;;;;;;;;;;;14.70;99.90;;;;;;5023924;28;20468;-79
2022/11/10 16:52:55;;;;;;;;;;;14.70;99.90;;;;;;5022657;28;19967;-80
2022/11/10 16:55:41;;;;;;;;;;;14.70;99.90;;;;;;5023696;28;19928;-78
2022/11/10 16:58:28;;;;;;;;;;;14.70;99.90;;;;;;5023877;28;19932;-81
2022/11/10 17:01:16;;;;;;;;;;;14.60;99.90;;;;;;5022649;28;20384;-77
2022/11/10 17:04:05;;;;;;;;;;;14.70;99.90;;;;;;5022240;28;19928;-74
2022/11/10 17:06:51;;;;;;;;;;;14.60;99.90;;;;;;5022752;28;19928;-79
2022/11/10 17:09:37;;;;;;;;;;;14.60;99.90;;;;;;5022135;28;20127;-79
2022/11/10 17:12:23;;;;;;;;;;;14.50;99.90;;;;;;5024537;28;20461;-78
2022/11/10 17:15:11;;;;;;;;;;;14.40;99.90;;;;;;5022346;28;19941;-78
2022/11/10 17:18:05;;;;;;;;;;;14.30;99.90;;;;;;5022516;28;19928;-79